• Join FlightAware (Why Join?)
  • Login
  • US Flag 
09:25PM EDT


 

Airport Tracker/Info


-or-


 

Live Flight TrackerFlight Track Log ✈ C-FTOH ✈ 22-Apr-2013 ✈ CYOW - MMUN / CUN

Flight Track Log - Related Links

Times and Time Zones

All times are in EDT time to prevent confusion due to time zone crossing. See the C-FTOH flight status page for this flight to view local times or setup timezone preferences in your user account.

Time Position Orientation Groundspeed Altitude Reporting Facility
EDT Latitude Longitude Course Direction KTS MPH feet Rate Location/Type
12:26PM 44.0810 -76.0500 184° South 401 461 36,500  Level FlightAware
12:27PM 44.0060 -76.0590 185° South 401 461 37,800 1,740 Climbing FlightAware
12:27PM 43.9250 -76.0690 185° South 386 444 39,000 1,080 Climbing FlightAware
12:28PM 43.8520 -76.0830 188° South 402 463 39,400 660 Climbing FlightAware
12:29PM 43.7770 -76.0960 187° South 408 470 39,900 420 Climbing FlightAware
12:29PM 43.6980 -76.1100 187° South 409 471 40,000 60 Climbing FlightAware
12:30PM 43.6230 -76.1230 187° South 408 470 40,000  Level FlightAware
12:31PM 43.5430 -76.1370 187° South 407 468 40,000  Level FlightAware
12:31PM 43.4640 -76.1520 188° South 405 466 40,000  Level FlightAware
12:32PM 43.3810 -76.1660 187° South 403 464 40,000  Level FlightAware
12:33PM 43.3070 -76.1790 187° South 402 463 40,000  Level FlightAware
12:34PM 43.2390 -76.1910 187° South 401 461 40,000  Level FlightAware
12:34PM 43.1520 -76.2150 191° South 393 452 40,000  Level FlightAware
12:35PM 43.0910 -76.2630 210° Southwest 389 448 40,000  Level FlightAware
12:36PM 43.0200 -76.3210 211° Southwest 388 447 40,000  Level FlightAware
12:36PM 42.9610 -76.3700 211° Southwest 387 445 40,000  Level FlightAware
12:37PM 42.8900 -76.4280 211° Southwest 386 444 40,000  Level FlightAware
12:38PM 42.8300 -76.4770 211° Southwest 386 444 40,000  Level FlightAware
12:38PM 42.7720 -76.5250 211° Southwest 386 444 40,000  Level FlightAware
12:39PM 42.7000 -76.5840 211° Southwest 385 443 40,000  Level FlightAware
12:40PM 42.6390 -76.6340 211° Southwest 385 443 40,000  Level FlightAware
12:41PM 42.5800 -76.6810 210° Southwest 385 443 40,000  Level FlightAware
12:41PM 42.5120 -76.7370 211° Southwest 386 444 40,000  Level FlightAware
12:42PM 42.4480 -76.7890 211° Southwest 386 444 40,000  Level FlightAware
12:43PM 42.3790 -76.8450 196° South 386 444 40,000  Level FlightAware
12:43PM 42.3170 -76.8940 210° Southwest 387 445 40,000  Level FlightAware
12:44PM 42.2480 -76.9500 211° Southwest 387 445 40,000  Level FlightAware
12:45PM 42.1880 -76.9980 211° Southwest 387 445 40,000  Level FlightAware
12:46PM 42.1180 -77.0540 211° Southwest 387 445 40,000  Level FlightAware
12:46PM 42.0600 -77.1000 210° Southwest 388 447 40,000  Level FlightAware
12:47PM 41.9960 -77.1510 211° Southwest 388 447 40,000  Level FlightAware
12:48PM 41.9260 -77.2070 211° Southwest 387 445 40,000  Level FlightAware
12:48PM 41.8640 -77.2560 210° Southwest 387 445 40,000  Level FlightAware
12:49PM 41.7940 -77.3110 210° Southwest 386 444 40,000  Level FlightAware
12:50PM 41.7350 -77.3570 210° Southwest 385 443 40,000  Level FlightAware
12:50PM 41.6630 -77.4140 211° Southwest 384 442 40,000  Level FlightAware
12:51PM 41.6010 -77.4630 211° Southwest 384 442 40,000  Level FlightAware
12:52PM 41.5410 -77.5100 210° Southwest 383 441 40,000  Level FlightAware
12:53PM 41.4740 -77.5620 210° Southwest 384 442 40,000  Level FlightAware
12:53PM 41.4110 -77.6120 211° Southwest 385 443 40,000  Level FlightAware
12:54PM 41.3490 -77.6600 210° Southwest 386 444 40,000  Level FlightAware
12:55PM 41.2840 -77.7100 210° Southwest 387 445 40,000  Level FlightAware
12:55PM 41.2170 -77.7610 210° Southwest 388 447 40,000  Level FlightAware
12:56PM 41.1520 -77.8120 211° Southwest 389 448 40,000  Level FlightAware
12:57PM 41.0870 -77.8620 210° Southwest 390 449 40,000  Level FlightAware
12:57PM 41.0250 -77.9100 210° Southwest 390 449 40,000  Level FlightAware
12:58PM 40.9600 -77.9600 210° Southwest 391 450 40,000  Level FlightAware
12:59PM 40.8960 -78.0240 217° Southwest 384 442 40,000  Level FlightAware
12:59PM 40.8540 -78.0900 230° Southwest 383 441 40,000  Level FlightAware
01:00PM 40.8000 -78.1740 230° Southwest 384 442 40,000  Level FlightAware
01:01PM 40.7540 -78.2470 230° Southwest 383 441 40,000  Level FlightAware
01:02PM 40.7070 -78.3190 229° Southwest 383 441 40,000  Level FlightAware
01:02PM 40.6560 -78.3970 229° Southwest 383 441 40,000  Level FlightAware
01:03PM 40.6100 -78.4690 230° Southwest 383 441 40,000  Level FlightAware
01:04PM 40.5580 -78.5490 229° Southwest 383 441 40,000  Level FlightAware
01:04PM 40.5130 -78.6180 229° Southwest 384 442 40,000  Level FlightAware
01:05PM 40.4600 -78.6990 229° Southwest 384 442 40,000  Level FlightAware
01:06PM 40.4180 -78.7630 229° Southwest 385 443 40,000  Level FlightAware
01:06PM 40.3680 -78.8400 230° Southwest 385 443 40,000  Level FlightAware
01:07PM 40.3230 -78.9070 229° Southwest 385 443 40,000  Level FlightAware
01:08PM 40.2700 -78.9880 229° Southwest 385 443 40,000  Level FlightAware
01:09PM 40.2170 -79.0690 229° Southwest 384 442 40,000  Level FlightAware
01:09PM 40.1720 -79.1360 229° Southwest 384 442 40,000  Level FlightAware
01:10PM 40.1300 -79.2000 229° Southwest 385 443 40,000  Level FlightAware
01:11PM 40.0650 -79.2970 229° Southwest 387 445 40,000  Level FlightAware
01:11PM 40.0180 -79.3680 229° Southwest 389 448 40,000  Level FlightAware
01:12PM 39.9780 -79.4270 229° Southwest 392 451 40,000  Level FlightAware
01:13PM 39.9170 -79.5190 229° Southwest 394 453 40,000  Level FlightAware
01:13PM 39.8810 -79.5720 228° Southwest 396 456 40,000  Level FlightAware
01:14PM 39.8220 -79.6600 229° Southwest 399 459 40,000  Level FlightAware
01:15PM 39.7840 -79.7160 229° Southwest 400 460 40,000  Level FlightAware
01:16PM 39.7170 -79.8150 229° Southwest 401 461 40,000  Level FlightAware
01:17PM 39.6550 -79.9070 229° Southwest 402 463 40,000  Level FlightAware
01:17PM 39.5850 -80.0100 229° Southwest 402 463 40,000  Level FlightAware
01:18PM 39.5330 -80.0860 228° Southwest 403 464 40,000  Level FlightAware
01:19PM 39.4810 -80.1600 228° Southwest 403 464 40,000  Level FlightAware
01:20PM 39.4270 -80.2360 227° Southwest 403 464 40,000  Level FlightAware
01:20PM 39.3770 -80.3070 228° Southwest 403 464 40,000  Level FlightAware
01:21PM 39.3250 -80.3800 227° Southwest 403 464 40,000  Level FlightAware
01:22PM 39.2730 -80.4530 227° Southwest 403 464 40,000  Level FlightAware
01:22PM 39.2130 -80.5380 228° Southwest 403 464 40,000  Level FlightAware
01:23PM 39.1540 -80.6190 227° Southwest 402 463 40,000  Level FlightAware
01:24PM 39.0970 -80.6980 227° Southwest 401 461 40,000  Level FlightAware
01:24PM 39.0470 -80.7690 228° Southwest 401 461 40,000  Level FlightAware
01:25PM 38.9960 -80.8390 227° Southwest 401 461 40,000  Level FlightAware
01:26PM 38.9430 -80.9170 229° Southwest 401 461 40,000  Level FlightAware
01:27PM 38.8860 -81.0010 229° Southwest 401 461 40,000  Level FlightAware
01:27PM 38.8370 -81.0710 228° Southwest 400 460 40,000  Level FlightAware
01:28PM 38.7890 -81.1410 229° Southwest 399 459 40,000  Level FlightAware
01:29PM 38.7330 -81.2210 228° Southwest 399 459 40,000  Level FlightAware
01:29PM 38.6850 -81.2910 229° Southwest 398 458 40,000  Level FlightAware
01:30PM 38.6290 -81.3720 229° Southwest 398 458 40,000  Level FlightAware
01:31PM 38.5800 -81.4410 228° Southwest 397 457 40,000  Level FlightAware
01:32PM 38.5250 -81.5200 228° Southwest 395 455 40,000  Level FlightAware
01:32PM 38.4780 -81.5880 229° Southwest 394 453 40,000  Level FlightAware
01:33PM 38.4290 -81.6570 228° Southwest 393 452 40,000  Level FlightAware
01:34PM 38.3750 -81.7340 228° Southwest 393 452 40,000  Level FlightAware
01:34PM 38.3220 -81.7990 224° Southwest 395 455 40,000  Level FlightAware
01:35PM 38.2600 -81.8650 220° Southwest 396 456 40,000  Level FlightAware
01:36PM 38.2020 -81.9260 220° Southwest 399 459 40,000  Level FlightAware
01:36PM 38.1501 -81.9809 220° Southwest 401 461 40,000  Level FlightAware ADS-B
01:37PM 38.0800 -82.0540 219° Southwest 402 463 40,000  Level FlightAware
01:37PM 38.0501 -82.0854 220° Southwest 402 463 40,000  Level FlightAware ADS-B
01:38PM 38.0058 -82.1317 219° Southwest 402 463 40,000  Level FlightAware ADS-B
01:39PM 37.9535 -82.1864 220° Southwest 401 461 40,000  Level FlightAware ADS-B
01:39PM 37.9064 -82.2357 220° Southwest 400 460 40,000  Level FlightAware ADS-B
01:40PM 37.8535 -82.2908 219° Southwest 399 459 40,000  Level FlightAware ADS-B
01:40PM 37.8023 -82.3441 219° Southwest 398 458 40,000  Level FlightAware ADS-B
01:41PM 37.7306 -82.4182 219° Southwest 398 458 40,000  Level FlightAware ADS-B
01:42PM 37.6785 -82.4720 219° Southwest 395 455 40,000  Level FlightAware ADS-B
01:42PM 37.6316 -82.5206 219° Southwest 395 455 40,000  Level FlightAware ADS-B
01:43PM 37.5858 -82.5679 219° Southwest 394 453 40,000  Level FlightAware ADS-B
01:43PM 37.5424 -82.6128 219° Southwest 395 455 40,000  Level FlightAware ADS-B
01:44PM 37.4982 -82.6581 219° Southwest 396 456 40,000  Level FlightAware ADS-B
01:44PM 37.4514 -82.7057 219° Southwest 397 457 40,000  Level FlightAware ADS-B
01:45PM 37.4081 -82.7500 219° Southwest 397 457 40,000  Level FlightAware ADS-B
01:46PM 37.3005 -82.8606 219° Southwest 397 457 40,000  Level FlightAware ADS-B
01:47PM 37.2565 -82.9056 219° Southwest 400 460 40,000  Level FlightAware ADS-B
01:47PM 37.2120 -82.9507 219° Southwest 401 461 40,000  Level FlightAware ADS-B
01:48PM 37.1684 -82.9948 219° Southwest 402 463 40,000  Level FlightAware ADS-B
01:48PM 37.1171 -83.0466 219° Southwest 403 464 40,000  Level FlightAware ADS-B
01:49PM 37.0726 -83.0919 219° Southwest 405 466 40,000  Level FlightAware ADS-B
01:49PM 37.0278 -83.1372 219° Southwest 405 466 40,000  Level FlightAware ADS-B
01:50PM 36.9822 -83.1829 219° Southwest 406 467 40,000  Level FlightAware ADS-B
01:50PM 36.9380 -83.2275 219° Southwest 405 466 40,000  Level FlightAware ADS-B
01:51PM 36.8919 -83.2740 219° Southwest 406 467 40,000  Level FlightAware ADS-B
01:51PM 36.8468 -83.3194 219° Southwest 404 465 40,000  Level FlightAware ADS-B
01:52PM 36.8031 -83.3633 219° Southwest 402 463 40,000  Level FlightAware ADS-B
01:52PM 36.7592 -83.4074 219° Southwest 402 463 40,000  Level FlightAware ADS-B
01:53PM 36.7093 -83.4575 219° Southwest 401 461 40,000  Level FlightAware ADS-B
01:54PM 36.6658 -83.5007 219° Southwest 400 460 40,000  Level FlightAware ADS-B
01:54PM 36.6219 -83.5442 218° Southwest 399 459 40,000  Level FlightAware ADS-B
01:55PM 36.5785 -83.5873 219° Southwest 398 458 40,000  Level FlightAware ADS-B
01:55PM 36.5351 -83.6304 219° Southwest 398 458 40,000  Level FlightAware ADS-B
01:56PM 36.4915 -83.6739 219° Southwest 397 457 40,000  Level FlightAware ADS-B
01:56PM 36.4488 -83.7164 219° Southwest 396 456 40,000  Level FlightAware ADS-B
01:57PM 36.4058 -83.7590 219° Southwest 395 455 40,000  Level FlightAware ADS-B
01:57PM 36.3629 -83.8012 218° Southwest 394 453 40,000  Level FlightAware ADS-B
01:58PM 36.3189 -83.8445 218° Southwest 393 452 40,000  Level FlightAware ADS-B
01:58PM 36.2743 -83.8884 218° Southwest 392 451 40,000  Level FlightAware ADS-B
01:59PM 36.2313 -83.9307 218° Southwest 392 451 40,000  Level FlightAware ADS-B
01:59PM 36.1879 -83.9733 218° Southwest 392 451 40,000  Level FlightAware ADS-B
02:00PM 36.1430 -84.0173 218° Southwest 393 452 40,000  Level FlightAware ADS-B
02:00PM 36.0922 -84.0672 218° Southwest 394 453 40,000  Level FlightAware ADS-B
02:01PM 36.0483 -84.1102 218° Southwest 394 453 40,000  Level FlightAware ADS-B
02:01PM 35.9989 -84.1585 218° Southwest 395 455 40,000  Level FlightAware ADS-B
02:02PM 35.9452 -84.2108 218° Southwest 396 456 40,000  Level FlightAware ADS-B
02:02PM 35.8992 -84.2556 218° Southwest 397 457 40,000  Level FlightAware ADS-B
02:03PM 35.8541 -84.2992 218° Southwest 396 456 40,000  Level FlightAware ADS-B
02:04PM 35.8030 -84.3488 218° Southwest 397 457 40,000  Level FlightAware ADS-B
02:04PM 35.7518 -84.3983 218° Southwest 397 457 40,000  Level FlightAware ADS-B
02:05PM 35.7079 -84.4407 218° Southwest 397 457 40,000  Level FlightAware ADS-B
02:05PM 35.6631 -84.4840 218° Southwest 399 459 40,000  Level FlightAware ADS-B
02:06PM 35.6192 -84.5264 218° Southwest 400 460 40,000  Level FlightAware ADS-B
02:06PM 35.5737 -84.5701 218° Southwest 400 460 40,000  Level FlightAware ADS-B
02:07PM 35.5266 -84.6154 218° Southwest 402 463 40,000  Level FlightAware ADS-B
02:07PM 35.4798 -84.6602 218° Southwest 402 463 40,000  Level FlightAware ADS-B
02:08PM 35.4349 -84.7032 218° Southwest 401 461 40,000  Level FlightAware ADS-B
02:08PM 35.3898 -84.7463 218° Southwest 401 461 40,000  Level FlightAware ADS-B
02:09PM 35.3447 -84.7895 218° Southwest 401 461 40,000  Level FlightAware ADS-B
02:09PM 35.3008 -84.8315 218° Southwest 400 460 40,000  Level FlightAware ADS-B
02:10PM 35.2564 -84.8738 218° Southwest 400 460 40,000  Level FlightAware ADS-B
02:10PM 35.2122 -84.9158 218° Southwest 400 460 40,000  Level FlightAware ADS-B
02:11PM 35.1669 -84.9589 218° Southwest 400 460 40,000  Level FlightAware ADS-B
02:11PM 35.1208 -85.0026 218° Southwest 400 460 40,000  Level FlightAware ADS-B
02:12PM 35.0658 -85.0546 218° Southwest 399 459 40,000  Level FlightAware ADS-B
02:13PM 34.9881 -85.1279 218° Southwest 399 459 40,000  Level FlightAware ADS-B
02:14PM 34.9153 -85.1737 207° Southwest 404 465 40,000  Level FlightAware ADS-B
02:14PM 34.8961 -85.1822 200° South 412 474 40,000  Level FlightAware ADS-B
02:14PM 34.8416 -85.2060 200° South 412 474 40,000  Level FlightAware ADS-B
02:15PM 34.7830 -85.2318 200° South 411 473 40,000  Level FlightAware ADS-B
02:15PM 34.7243 -85.2575 200° South 410 472 40,000  Level FlightAware ADS-B
02:16PM 34.6674 -85.2824 200° South 409 471 40,000  Level FlightAware ADS-B
02:17PM 34.6069 -85.3089 200° South 409 471 40,000  Level FlightAware ADS-B
02:18PM 34.4850 -85.3620 200° South 409 471 40,000  Level FlightAware
02:18PM 34.4035 -85.3973 200° South 410 472 40,000  Level FlightAware ADS-B
02:19PM 34.3495 -85.4207 200° South 410 472 40,000  Level FlightAware ADS-B
02:19PM 34.2939 -85.4449 200° South 411 473 40,000  Level FlightAware ADS-B
02:20PM 34.2350 -85.4700 199° South 411 473 40,000  Level FlightAware
02:20PM 34.2189 -85.4774 201° Southwest 411 473 40,000  Level FlightAware ADS-B
02:21PM 34.1580 -85.5040 200° South 412 474 40,000  Level FlightAware
02:21PM 34.1160 -85.5218 199° South 412 474 40,000  Level FlightAware ADS-B
02:22PM 33.9920 -85.5750 200° South 412 474 40,000  Level FlightAware
02:23PM 33.9100 -85.6100 200° South 412 474 40,000  Level FlightAware
02:24PM 33.8380 -85.6410 200° South 412 474 40,000  Level FlightAware
02:24PM 33.7740 -85.6690 200° South 412 474 40,000  Level FlightAware
02:25PM 33.7020 -85.6990 199° South 412 474 40,000  Level FlightAware
02:26PM 33.6410 -85.7240 199° South 412 474 40,000  Level FlightAware
02:27PM 33.5640 -85.7560 199° South 412 474 40,000  Level FlightAware
02:27PM 33.4620 -85.8020 201° Southwest 408 470 40,000  Level FlightAware
02:28PM 33.4040 -85.8250 198° South 408 470 40,000  Level FlightAware
02:29PM 33.3090 -85.8660 200° South 40,000  Level FlightAware
02:29PM 33.2439 -85.8842 200° South 407 468 40,000  Level Atlanta Center
02:30PM 33.1389 -85.9392 204° Southwest 407 468 40,000  Level Atlanta Center
02:31PM 33.0317 -85.9839 199° South 407 468 40,000  Level Atlanta Center
02:32PM 32.9267 -86.0286 200° South 407 468 40,000  Level Atlanta Center
02:33PM 32.8217 -86.0706 199° South 407 468 40,000  Level Atlanta Center
02:34PM 32.7164 -86.1150 200° South 407 468 40,000  Level Atlanta Center
02:35PM 32.6236 -86.1772 209° Southwest 407 468 40,000  Level Atlanta Center
02:36PM 32.5425 -86.2811 227° Southwest 392 451 40,000  Level Atlanta Center
02:37PM 32.4658 -86.3603 221° Southwest 392 451 40,000  Level Atlanta Center
02:43PM 32.0350 -86.8690 221° Southwest 391 450 40,000  Level FlightAware
02:44PM 31.9900 -86.9220 225° Southwest 391 450 40,000  Level FlightAware
02:44PM 31.9370 -86.9840 225° Southwest 393 452 40,000  Level FlightAware
02:45PM 31.8790 -87.0500 224° Southwest 393 452 40,000  Level FlightAware
02:46PM 31.8240 -87.1150 225° Southwest 393 452 40,000  Level FlightAware
02:46PM 31.7760 -87.1680 223° Southwest 393 452 40,000  Level FlightAware
02:47PM 31.7320 -87.2190 225° Southwest 393 452 40,000  Level FlightAware
02:48PM 31.6870 -87.2690 223° Southwest 393 452 40,000  Level FlightAware
02:49PM 31.6030 -87.3680 225° Southwest 394 453 40,000  Level FlightAware
02:49PM 31.5500 -87.4290 224° Southwest 394 453 40,000  Level FlightAware
02:50PM 31.4980 -87.4890 225° Southwest 392 451 40,000  Level FlightAware
02:51PM 31.4370 -87.5570 224° Southwest 389 448 40,000  Level FlightAware
02:51PM 31.3880 -87.6130 224° Southwest 387 445 40,000  Level FlightAware
02:52PM 31.3360 -87.6730 225° Southwest 386 444 40,000  Level FlightAware
02:53PM 31.2790 -87.7380 224° Southwest 384 442 40,000  Level FlightAware
02:53PM 31.2290 -87.7950 224° Southwest 384 442 40,000  Level FlightAware
02:54PM 31.1770 -87.8530 224° Southwest 383 441 40,000  Level FlightAware
02:55PM 31.1180 -87.9190 224° Southwest 386 444 40,000  Level FlightAware
02:55PM 31.0660 -87.9780 224° Southwest 390 449 40,000  Level FlightAware
02:56PM 31.0100 -88.0410 224° Southwest 390 449 40,000  Level FlightAware
02:57PM 30.9570 -88.1010 224° Southwest 392 451 40,000  Level FlightAware
02:58PM 30.9060 -88.1580 224° Southwest 393 452 40,000  Level FlightAware
02:58PM 30.8460 -88.2260 224° Southwest 392 451 40,000  Level FlightAware
02:59PM 30.7930 -88.2840 223° Southwest 392 451 40,000  Level FlightAware
03:00PM 30.7350 -88.3490 224° Southwest 391 450 40,000  Level FlightAware
03:00PM 30.6820 -88.4090 224° Southwest 391 450 40,000  Level FlightAware
03:01PM 30.6310 -88.4690 225° Southwest 391 450 40,000  Level FlightAware
03:02PM 30.5740 -88.5330 224° Southwest 391 450 40,000  Level FlightAware
03:02PM 30.5230 -88.5930 225° Southwest 391 450 40,000  Level FlightAware
03:03PM 30.4630 -88.6610 224° Southwest 391 450 40,000  Level FlightAware
03:04PM 30.4130 -88.7180 225° Southwest 391 450 40,000  Level FlightAware
03:05PM 30.3600 -88.7780 224° Southwest 391 450 40,000  Level FlightAware
03:05PM 30.3050 -88.8410 225° Southwest 391 450 40,000  Level FlightAware
03:06PM 30.2520 -88.9010 224° Southwest 391 450 40,000  Level FlightAware
03:07PM 30.2020 -88.9580 225° Southwest 391 450 40,000  Level FlightAware
03:07PM 30.1420 -89.0250 224° Southwest 391 450 40,000  Level FlightAware
03:08PM 30.0850 -89.0900 225° Southwest 390 449 40,000  Level FlightAware
03:09PM 30.0350 -89.1470 225° Southwest 390 449 40,000  Level FlightAware
03:09PM 29.9810 -89.2070 224° Southwest 388 447 40,000  Level FlightAware
03:10PM 29.9240 -89.2710 224° Southwest 388 447 40,000  Level FlightAware
03:11PM 29.8810 -89.3200 225° Southwest 387 445 40,000  Level FlightAware
03:12PM 29.8250 -89.3830 224° Southwest 387 445 40,000  Level FlightAware
03:12PM 29.7810 -89.4320 224° Southwest 387 445 40,000  Level FlightAware
03:13PM 29.7260 -89.4930 224° Southwest 387 445 40,000  Level FlightAware
03:14PM 29.6820 -89.5410 223° Southwest 387 445 40,000  Level FlightAware
03:14PM 29.6380 -89.5900 224° Southwest 387 445 40,000  Level FlightAware
03:15PM 29.5950 -89.6390 225° Southwest 387 445 40,000  Level FlightAware
03:16PM 29.5510 -89.6870 224° Southwest 387 445 40,000  Level FlightAware
03:16PM 29.5070 -89.7360 224° Southwest 387 445 40,000  Level FlightAware
03:17PM 29.4520 -89.7970 224° Southwest 387 445 40,000  Level FlightAware
03:18PM 29.4090 -89.8450 224° Southwest 387 445 40,000  Level FlightAware
03:19PM 29.3650 -89.8940 224° Southwest 387 445 40,000  Level FlightAware
03:19PM 29.3100 -89.9540 224° Southwest 387 445 40,000  Level FlightAware
03:20PM 29.2660 -90.0030 224° Southwest 387 445 40,000  Level FlightAware
03:21PM 29.2220 -90.0510 224° Southwest 387 445 40,000 540 Level FlightAware
03:22PM 28.9386 -90.0033 224° Southwest 469 540 41,000 480 Climbing Houston Center
03:23PM 28.8172 -89.9522 160° South 466 536 41,000 -60 Level Houston Center
03:24PM 28.6972 -89.9006 159° South 462 532 40,900 -60 Descending Houston Center
03:25PM 28.5764 -89.8497 160° South 463 533 40,900  Level Houston Center
03:26PM 28.4547 -89.7969 159° South 465 535 41,000  Climbing Houston Center
03:27PM 28.3333 -89.7450 159° South 466 536 41,000  Level Houston Center
03:28PM 28.1878 -89.6833 160° South 465 535 41,000  Level Houston Center
03:29PM 28.0656 -89.6331 160° South 465 535 41,000  Level Houston Center
03:30PM 27.9447 -89.5811 159° South 464 534 41,000 -60 Level Houston Center
03:31PM 27.8222 -89.5333 161° South 465 535 40,900 -60 Descending Houston Center
03:32PM 27.7022 -89.4800 159° South 464 534 40,900  Level Houston Center
03:33PM 27.5558 -89.4247 161° South 462 532 41,000  Climbing Houston Center
03:34PM 27.4300 -89.3758 161° South 470 541 41,000  Level Houston Center
03:35PM 27.3031 -89.3228 160° South 477 549 41,000  Level Houston Center
03:36PM 27.1761 -89.2686 159° South 483 556 41,000 -60 Level Houston Center
03:37PM 27.0478 -89.2192 161° South 486 559 40,900  Descending Houston Center
03:38PM 26.9211 -89.1669 160° South 485 558 41,000 60 Climbing Houston Center
03:40PM 26.7952 -89.1148 160° South  Level FlightAware Approximate
03:47PM 26.0697 -88.8184 160° South  Level FlightAware Approximate
03:48PM 25.9660 -88.7765 160° South  Level FlightAware Approximate
03:49PM 25.8622 -88.7346 160° South  Level FlightAware Approximate
03:50PM 25.7585 -88.6928 160° South  Level FlightAware Approximate
03:51PM 25.6547 -88.6511 160° South  Level FlightAware Approximate
03:52PM 25.5509 -88.6095 160° South  Level FlightAware Approximate
03:53PM 25.4472 -88.5679 160° South  Level FlightAware Approximate
03:54PM 25.3434 -88.5264 160° South  Level FlightAware Approximate
03:55PM 25.2396 -88.4850 160° South  Level FlightAware Approximate
03:56PM 25.1357 -88.4436 160° South  Level FlightAware Approximate
03:57PM 25.0319 -88.4024 160° South  Level FlightAware Approximate
03:58PM 24.9281 -88.3611 160° South  Level FlightAware Approximate
03:59PM 24.8238 -88.3214 161° South  Level FlightAware Approximate
04:00PM 24.7194 -88.2821 161° South  Level FlightAware Approximate
04:01PM 24.6149 -88.2430 161° South  Level FlightAware Approximate
04:02PM 24.5104 -88.2039 161° South  Level FlightAware Approximate
04:03PM 24.4066 -88.1626 160° South  Level FlightAware Approximate
04:04PM 24.3030 -88.1212 160° South  Level FlightAware Approximate
04:05PM 24.1993 -88.0797 160° South  Level FlightAware Approximate
04:06PM 24.0956 -88.0382 160° South  Level FlightAware Approximate
04:07PM 23.9920 -87.9967 160° South  Level FlightAware Approximate
04:08PM 23.8883 -87.9553 160° South  Level FlightAware Approximate
04:09PM 23.7847 -87.9139 160° South  Level FlightAware Approximate
04:10PM 23.6807 -87.8733 161° South  Level FlightAware Approximate
04:11PM 23.5767 -87.8332 161° South  Level FlightAware Approximate
04:12PM 23.4726 -87.7932 161° South  Level FlightAware Approximate
04:13PM 23.3685 -87.7532 161° South  Level FlightAware Approximate
04:14PM 23.2645 -87.7132 160° South  Level FlightAware Approximate
04:15PM 23.1604 -87.6731 160° South  Level FlightAware Approximate
04:16PM 23.0564 -87.6331 161° South  Level FlightAware Approximate
04:17PM 22.9524 -87.5931 161° South  Level FlightAware Approximate
04:18PM 22.8496 -87.5498 155° Southeast  Level FlightAware Approximate
04:19PM 22.7466 -87.5071 161° South  Level FlightAware Approximate
04:20PM 22.6426 -87.4670 160° South  Level FlightAware Approximate
04:21PM 22.5368 -87.4342 167° South  Level FlightAware Approximate
04:22PM 22.4324 -87.3954 161° South  Level FlightAware Approximate
04:23PM 22.3281 -87.3563 161° South  Level FlightAware Approximate
04:24PM 22.2239 -87.3171 161° South  Level FlightAware Approximate
04:25PM 22.1198 -87.2775 161° South  Level FlightAware Approximate
04:26PM 22.0157 -87.2380 161° South  Level FlightAware Approximate
04:27PM 21.9116 -87.1985 161° South  Level FlightAware Approximate
04:28PM 21.8075 -87.1591 161° South  Level FlightAware Approximate
04:29PM 21.7017 -87.1255 164° South  Level FlightAware Approximate
04:30PM 21.6005 -87.0838 137° Southeast  Level FlightAware Approximate
04:31PM 21.4961 -87.0455 161° South  Level FlightAware Approximate
04:32PM 21.3914 -87.0082 163° South  Level FlightAware Approximate
04:33PM 21.2860 -86.9731 163° South  Level FlightAware Approximate
04:34PM 21.1824 -86.9330 160° South  Level FlightAware Approximate
04:35PM 21.0790 -86.8916 160° South  Level FlightAware Approximate
04:36PM 21.0365 -86.8771 160° South  Level Estimated
04:37PM 21.0365 -86.8771 160° South  Level Estimated
04:38PM 21.0365 -86.8771 160° South  Level Estimated
04:39PM 21.0365 -86.8771 160° South  Level Estimated
04:40PM 21.0365 -86.8771 160° South  Level Estimated
04:41PM 21.0365 -86.8771 160° South  Level Estimated
04:42PM 21.0365 -86.8771 160° South  Level Estimated
04:43PM 21.0365 -86.8771 160° South  Level Estimated
04:44PM 21.0365 -86.8771 160° South  Level Estimated
04:45PM 21.0365 -86.8771 160° South  Level Estimated
04:46PM 21.0365 -86.8771 160° South  Level Estimated
04:47PM 21.0365 -86.8771 160° South  Level Estimated
04:48PM 21.0365 -86.8771 160° South  Level Estimated
04:49PM 21.0365 -86.8771 160° South  Level Estimated
04:50PM 21.0365 -86.8771 160° South  Level Estimated